sensor_id;sensor_type;location;lat;lon;timestamp;pressure;altitude;pressure_sealevel;temperature;humidity
43681;BME280;29281;50.356;30.894;2023-05-14T00:00:42;100795.55;;;17.90;47.34
43681;BME280;29281;50.356;30.894;2023-05-14T00:01:44;100790.17;;;17.90;47.33
43681;BME280;29281;50.356;30.894;2023-05-14T00:02:48;100798.36;;;17.89;47.10
43681;BME280;29281;50.356;30.894;2023-05-14T00:03:53;100781.26;;;17.90;47.28
43681;BME280;29281;50.356;30.894;2023-05-14T00:04:56;100796.64;;;17.78;48.05
43681;BME280;29281;50.356;30.894;2023-05-14T00:05:59;100794.42;;;17.63;48.37
43681;BME280;29281;50.356;30.894;2023-05-14T00:07:04;100803.34;;;17.63;48.42
43681;BME280;29281;50.356;30.894;2023-05-14T00:08:08;100794.39;;;17.53;48.62
43681;BME280;29281;50.356;30.894;2023-05-14T00:09:12;100796.23;;;17.52;48.42
43681;BME280;29281;50.356;30.894;2023-05-14T00:10:16;100796.66;;;17.57;48.22
43681;BME280;29281;50.356;30.894;2023-05-14T00:11:22;100800.91;;;17.60;48.07
43681;BME280;29281;50.356;30.894;2023-05-14T00:12:26;100794.55;;;17.61;48.70
43681;BME280;29281;50.356;30.894;2023-05-14T00:13:29;100789.45;;;17.58;48.96
43681;BME280;29281;50.356;30.894;2023-05-14T00:14:33;100789.61;;;17.56;49.32
43681;BME280;29281;50.356;30.894;2023-05-14T00:15:36;100789.19;;;17.61;48.88
43681;BME280;29281;50.356;30.894;2023-05-14T00:16:40;100789.05;;;17.63;48.41
43681;BME280;29281;50.356;30.894;2023-05-14T00:17:43;100791.02;;;17.61;48.50
43681;BME280;29281;50.356;30.894;2023-05-14T00:18:47;100796.95;;;17.54;49.30
43681;BME280;29281;50.356;30.894;2023-05-14T00:19:50;100790.00;;;17.52;49.25
43681;BME280;29281;50.356;30.894;2023-05-14T00:20:53;100792.69;;;17.52;49.43
43681;BME280;29281;50.356;30.894;2023-05-14T00:21:55;100788.89;;;17.54;49.60
43681;BME280;29281;50.356;30.894;2023-05-14T00:23:00;100787.22;;;17.63;48.80
43681;BME280;29281;50.356;30.894;2023-05-14T00:24:07;100789.19;;;17.61;48.86
43681;BME280;29281;50.356;30.894;2023-05-14T00:25:10;100791.45;;;17.56;49.09
43681;BME280;29281;50.356;30.894;2023-05-14T00:26:13;100787.45;;;17.50;48.82
43681;BME280;29281;50.356;30.894;2023-05-14T00:27:17;100795.12;;;17.55;49.22
43681;BME280;29281;50.356;30.894;2023-05-14T00:28:20;100797.80;;;17.55;47.00
43681;BME280;29281;50.356;30.894;2023-05-14T00:29:24;100796.09;;;17.54;46.73
43681;BME280;29281;50.356;30.894;2023-05-14T00:30:30;100795.54;;;17.60;47.78
43681;BME280;29281;50.356;30.894;2023-05-14T00:31:33;100791.58;;;17.54;46.81
43681;BME280;29281;50.356;30.894;2023-05-14T00:32:37;100797.11;;;17.63;46.67
43681;BME280;29281;50.356;30.894;2023-05-14T00:33:40;100793.21;;;17.67;46.58
43681;BME280;29281;50.356;30.894;2023-05-14T00:34:43;100793.08;;;17.68;46.31
43681;BME280;29281;50.356;30.894;2023-05-14T00:35:48;100794.33;;;17.64;46.57
43681;BME280;29281;50.356;30.894;2023-05-14T00:36:51;100790.14;;;17.50;46.60
43681;BME280;29281;50.356;30.894;2023-05-14T00:37:55;100791.25;;;17.48;46.46
43681;BME280;29281;50.356;30.894;2023-05-14T00:38:59;100788.56;;;17.48;46.46
43681;BME280;29281;50.356;30.894;2023-05-14T00:40:02;100786.73;;;17.48;47.88
43681;BME280;29281;50.356;30.894;2023-05-14T00:41:06;100787.91;;;17.55;46.70
43681;BME280;29281;50.356;30.894;2023-05-14T00:42:12;100781.55;;;17.56;47.05
43681;BME280;29281;50.356;30.894;2023-05-14T00:43:16;100787.22;;;17.63;46.63
43681;BME280;29281;50.356;30.894;2023-05-14T00:44:23;100779.06;;;17.65;47.54
43681;BME280;29281;50.356;30.894;2023-05-14T00:45:26;100789.91;;;17.63;46.76
43681;BME280;29281;50.356;30.894;2023-05-14T00:46:32;100784.89;;;17.49;46.39
43681;BME280;29281;50.356;30.894;2023-05-14T00:47:39;100785.58;;;17.41;46.25
43681;BME280;29281;50.356;30.894;2023-05-14T00:48:43;100795.01;;;17.36;46.57
43681;BME280;29281;50.356;30.894;2023-05-14T00:49:46;100788.11;;;17.43;46.65
43681;BME280;29281;50.356;30.894;2023-05-14T00:50:50;100787.97;;;17.44;47.00
43681;BME280;29281;50.356;30.894;2023-05-14T00:51:54;100796.88;;;17.45;45.93
43681;BME280;29281;50.356;30.894;2023-05-14T00:52:59;100786.27;;;17.43;45.50
43681;BME280;29281;50.356;30.894;2023-05-14T00:54:03;100793.94;;;17.48;44.95
43681;BME280;29281;50.356;30.894;2023-05-14T00:55:08;100795.64;;;17.49;44.69
43681;BME280;29281;50.356;30.894;2023-05-14T00:56:14;100796.49;;;17.49;45.19
43681;BME280;29281;50.356;30.894;2023-05-14T00:57:19;100787.72;;;17.47;44.47
43681;BME280;29281;50.356;30.894;2023-05-14T00:58:23;100784.63;;;17.52;44.56
43681;BME280;29281;50.356;30.894;2023-05-14T00:59:27;100790.98;;;17.51;43.97
43681;BME280;29281;50.356;30.894;2023-05-14T01:00:31;100792.23;;;17.47;44.60
43681;BME280;29281;50.356;30.894;2023-05-14T01:01:34;100797.21;;;17.51;43.95
43681;BME280;29281;50.356;30.894;2023-05-14T01:02:36;100798.19;;;17.50;43.92
43681;BME280;29281;50.356;30.894;2023-05-14T01:03:40;100791.58;;;17.54;43.89
43681;BME280;29281;50.356;30.894;2023-05-14T01:04:44;100791.58;;;17.54;43.96
43681;BME280;29281;50.356;30.894;2023-05-14T01:09:23;100795.90;;;17.46;44.49
43681;BME280;29281;50.356;30.894;2023-05-14T01:10:28;100796.36;;;17.51;44.33
43681;BME280;29281;50.356;30.894;2023-05-14T01:11:48;100799.30;;;17.48;44.12
43681;BME280;29281;50.356;30.894;2023-05-14T01:14:19;100796.09;;;17.54;43.62
43681;BME280;29281;50.356;30.894;2023-05-14T01:15:22;100796.66;;;17.57;43.62
43681;BME280;29281;50.356;30.894;2023-05-14T01:16:26;100799.50;;;17.56;43.87
43681;BME280;29281;50.356;30.894;2023-05-14T01:17:42;100795.50;;;17.71;43.67
43681;BME280;29281;50.356;30.894;2023-05-14T01:18:49;100799.20;;;17.59;43.48
43681;BME280;29281;50.356;30.894;2023-05-14T01:19:54;100804.22;;;17.64;43.66
43681;BME280;29281;50.356;30.894;2023-05-14T01:20:57;100807.63;;;17.66;43.96
43681;BME280;29281;50.356;30.894;2023-05-14T01:22:00;100804.67;;;17.69;44.44
43681;BME280;29281;50.356;30.894;2023-05-14T01:23:04;100808.22;;;17.69;45.33
43681;BME280;29281;50.356;30.894;2023-05-14T01:24:07;100801.41;;;17.65;44.00
43681;BME280;29281;50.356;30.894;2023-05-14T01:25:11;100809.09;;;17.58;43.79
43681;BME280;29281;50.356;30.894;2023-05-14T01:26:19;100812.28;;;17.64;43.61
43681;BME280;29281;50.356;30.894;2023-05-14T01:27:30;100807.63;;;17.66;44.26
43681;BME280;29281;50.356;30.894;2023-05-14T01:28:33;100814.34;;;17.60;44.62
43681;BME280;29281;50.356;30.894;2023-05-14T01:29:39;100820.27;;;17.54;44.43
43681;BME280;29281;50.356;30.894;2023-05-14T01:32:08;100830.30;;;17.31;45.12
43681;BME280;29281;50.356;30.894;2023-05-14T01:33:12;100816.75;;;17.33;45.56
43681;BME280;29281;50.356;30.894;2023-05-14T01:34:18;100825.27;;;17.38;44.62
43681;BME280;29281;50.356;30.894;2023-05-14T01:35:25;100818.62;;;17.42;44.60
43681;BME280;29281;50.356;30.894;2023-05-14T01:36:29;100823.73;;;17.45;44.60
43681;BME280;29281;50.356;30.894;2023-05-14T01:37:34;100815.80;;;17.43;44.97
43681;BME280;29281;50.356;30.894;2023-05-14T01:38:38;100817.38;;;17.46;45.38
43681;BME280;29281;50.356;30.894;2023-05-14T01:39:44;100817.71;;;17.52;45.84
43681;BME280;29281;50.356;30.894;2023-05-14T01:40:49;100814.30;;;17.50;46.38
43681;BME280;29281;50.356;30.894;2023-05-14T01:41:51;100816.01;;;17.51;46.59
43681;BME280;29281;50.356;30.894;2023-05-14T01:42:56;100821.77;;;17.47;45.87
43681;BME280;29281;50.356;30.894;2023-05-14T01:44:00;100821.59;;;17.39;45.89
43681;BME280;29281;50.356;30.894;2023-05-14T01:45:04;100825.00;;;17.41;46.00
43681;BME280;29281;50.356;30.894;2023-05-14T01:46:10;100817.42;;;17.25;47.01
43681;BME280;29281;50.356;30.894;2023-05-14T01:47:13;100822.63;;;17.27;47.62
43681;BME280;29281;50.356;30.894;2023-05-14T01:48:16;100819.95;;;17.27;48.00
43681;BME280;29281;50.356;30.894;2023-05-14T01:49:19;100816.36;;;17.16;47.71
43681;BME280;29281;50.356;30.894;2023-05-14T01:50:22;100813.42;;;17.19;47.96
43681;BME280;29281;50.356;30.894;2023-05-14T01:51:26;100812.95;;;17.14;47.89
43681;BME280;29281;50.356;30.894;2023-05-14T01:52:30;100813.88;;;17.04;46.79
43681;BME280;29281;50.356;30.894;2023-05-14T01:53:33;100816.69;;;17.02;46.99
43681;BME280;29281;50.356;30.894;2023-05-14T01:54:37;100816.56;;;17.04;47.03
43681;BME280;29281;50.356;30.894;2023-05-14T01:55:43;100807.31;;;16.97;47.81
43681;BME280;29281;50.356;30.894;2023-05-14T01:56:48;100805.23;;;17.00;48.02
43681;BME280;29281;50.356;30.894;2023-05-14T01:57:52;100802.11;;;16.95;47.96
43681;BME280;29281;50.356;30.894;2023-05-14T01:58:58;100807.60;;;16.94;48.36
43681;BME280;29281;50.356;30.894;2023-05-14T02:00:03;100807.26;;;16.87;48.99
43681;BME280;29281;50.356;30.894;2023-05-14T02:01:10;100799.08;;;16.88;48.62
43681;BME280;29281;50.356;30.894;2023-05-14T02:02:12;100803.59;;;16.88;48.74
43681;BME280;29281;50.356;30.894;2023-05-14T02:03:17;100799.94;;;16.89;47.38
43681;BME280;29281;50.356;30.894;2023-05-14T02:04:22;100801.42;;;16.82;46.79
43681;BME280;29281;50.356;30.894;2023-05-14T02:05:26;100800.00;;;16.78;47.24
43681;BME280;29281;50.356;30.894;2023-05-14T02:06:29;100799.46;;;16.84;47.12
43681;BME280;29281;50.356;30.894;2023-05-14T02:07:33;100800.06;;;16.87;49.16
43681;BME280;29281;50.356;30.894;2023-05-14T02:08:37;100799.08;;;16.88;48.09
43681;BME280;29281;50.356;30.894;2023-05-14T02:09:41;100796.40;;;16.88;47.61
43681;BME280;29281;50.356;30.894;2023-05-14T02:10:46;100795.36;;;16.80;48.13
43681;BME280;29281;50.356;30.894;2023-05-14T02:11:49;100793.31;;;16.72;48.50
43681;BME280;29281;50.356;30.894;2023-05-14T02:12:53;100795.73;;;16.75;48.48
43681;BME280;29281;50.356;30.894;2023-05-14T02:13:56;100796.47;;;16.77;48.06
43681;BME280;29281;50.356;30.894;2023-05-14T02:15:01;100789.27;;;16.78;48.57
43681;BME280;29281;50.356;30.894;2023-05-14T02:16:05;100789.52;;;16.75;48.05
43681;BME280;29281;50.356;30.894;2023-05-14T02:17:07;100791.83;;;16.79;47.49
43681;BME280;29281;50.356;30.894;2023-05-14T02:18:11;100790.50;;;16.74;48.18
43681;BME280;29281;50.356;30.894;2023-05-14T02:19:15;100784.03;;;16.76;47.57
43681;BME280;29281;50.356;30.894;2023-05-14T02:20:19;100788.29;;;16.79;47.53
43681;BME280;29281;50.356;30.894;2023-05-14T02:21:24;100788.13;;;16.80;47.72
43681;BME280;29281;50.356;30.894;2023-05-14T02:22:29;100798.55;;;16.74;47.14
43681;BME280;29281;50.356;30.894;2023-05-14T02:23:32;100791.23;;;16.76;47.54
43681;BME280;29281;50.356;30.894;2023-05-14T02:24:38;100792.52;;;16.81;48.08
43681;BME280;29281;50.356;30.894;2023-05-14T02:25:43;100795.42;;;16.90;48.01
43681;BME280;29281;50.356;30.894;2023-05-14T02:26:47;100793.34;;;16.93;47.39
43681;BME280;29281;50.356;30.894;2023-05-14T02:27:50;100792.02;;;16.87;47.06
43681;BME280;29281;50.356;30.894;2023-05-14T02:28:55;100795.20;;;16.81;47.28
43681;BME280;29281;50.356;30.894;2023-05-14T02:29:59;100792.20;;;16.75;47.61
43681;BME280;29281;50.356;30.894;2023-05-14T02:31:03;100789.84;;;16.81;47.85
43681;BME280;29281;50.356;30.894;2023-05-14T02:32:07;100797.50;;;16.86;46.93
43681;BME280;29281;50.356;30.894;2023-05-14T02:33:10;100797.63;;;16.84;46.73
43681;BME280;29281;50.356;30.894;2023-05-14T02:34:15;100794.51;;;16.79;46.80
43681;BME280;29281;50.356;30.894;2023-05-14T02:35:21;100792.99;;;16.86;46.85
43681;BME280;29281;50.356;30.894;2023-05-14T02:36:25;100796.14;;;16.92;46.76
43681;BME280;29281;50.356;30.894;2023-05-14T02:37:28;100791.94;;;16.99;46.47
43681;BME280;29281;50.356;30.894;2023-05-14T02:38:35;100799.48;;;17.05;46.58
43681;BME280;29281;50.356;30.894;2023-05-14T02:39:38;100796.80;;;17.05;47.03
43681;BME280;29281;50.356;30.894;2023-05-14T02:40:42;100795.14;;;17.13;46.98
43681;BME280;29281;50.356;30.894;2023-05-14T02:41:49;100789.27;;;17.19;46.69
43681;BME280;29281;50.356;30.894;2023-05-14T02:42:52;100789.00;;;17.22;46.54
43681;BME280;29281;50.356;30.894;2023-05-14T02:43:56;100781.98;;;17.31;46.39
43681;BME280;29281;50.356;30.894;2023-05-14T02:44:59;100792.84;;;17.30;46.25
43681;BME280;29281;50.356;30.894;2023-05-14T02:46:03;100785.38;;;17.33;46.18
43681;BME280;29281;50.356;30.894;2023-05-14T02:47:07;100792.63;;;17.42;45.97
43681;BME280;29281;50.356;30.894;2023-05-14T02:48:11;100791.94;;;17.40;46.50
43681;BME280;29281;50.356;30.894;2023-05-14T02:49:15;100785.58;;;17.41;46.27
43681;BME280;29281;50.356;30.894;2023-05-14T02:50:21;100780.77;;;17.45;46.13
43681;BME280;29281;50.356;30.894;2023-05-14T02:51:25;100787.19;;;17.53;46.15
43681;BME280;29281;50.356;30.894;2023-05-14T02:52:31;100782.73;;;17.64;46.58
43681;BME280;29281;50.356;30.894;2023-05-14T02:53:35;100783.81;;;17.91;45.72
43681;BME280;29281;50.356;30.894;2023-05-14T02:54:38;100775.95;;;18.19;44.53
43681;BME280;29281;50.356;30.894;2023-05-14T02:55:43;100783.88;;;18.11;45.06
43681;BME280;29281;50.356;30.894;2023-05-14T02:56:47;100786.81;;;17.98;44.71
43681;BME280;29281;50.356;30.894;2023-05-14T02:57:51;100787.80;;;17.97;44.83
43681;BME280;29281;50.356;30.894;2023-05-14T02:58:55;100789.97;;;18.13;45.13
43681;BME280;29281;50.356;30.894;2023-05-14T02:59:58;100785.45;;;18.23;44.43
43681;BME280;29281;50.356;30.894;2023-05-14T03:01:02;100796.14;;;18.04;44.96
43681;BME280;29281;50.356;30.894;2023-05-14T03:02:05;100804.45;;;17.91;46.43
43681;BME280;29281;50.356;30.894;2023-05-14T03:03:11;100802.04;;;17.88;45.78
43681;BME280;29281;50.356;30.894;2023-05-14T03:04:15;100805.16;;;17.83;46.01
43681;BME280;29281;50.356;30.894;2023-05-14T03:05:18;100811.78;;;17.79;46.26
43681;BME280;29281;50.356;30.894;2023-05-14T03:06:22;100808.56;;;17.85;46.26
43681;BME280;29281;50.356;30.894;2023-05-14T03:07:25;100806.87;;;17.94;44.67
43681;BME280;29281;50.356;30.894;2023-05-14T03:08:30;100805.64;;;18.08;43.93
43681;BME280;29281;50.356;30.894;2023-05-14T03:09:34;100803.13;;;18.16;45.46
43681;BME280;29281;50.356;30.894;2023-05-14T03:10:39;100796.51;;;18.30;46.05
43681;BME280;29281;50.356;30.894;2023-05-14T03:11:42;100789.16;;;18.32;45.96
43681;BME280;29281;50.356;30.894;2023-05-14T03:12:47;100795.78;;;18.18;45.23
43681;BME280;29281;50.356;30.894;2023-05-14T03:13:51;100791.47;;;17.96;45.46
43681;BME280;29281;50.356;30.894;2023-05-14T03:14:54;100785.38;;;17.94;45.53
43681;BME280;29281;50.356;30.894;2023-05-14T03:15:57;100788.34;;;17.91;46.08
43681;BME280;29281;50.356;30.894;2023-05-14T03:17:00;100787.62;;;17.89;45.92
43681;BME280;29281;50.356;30.894;2023-05-14T03:18:08;100781.17;;;18.01;46.19
43681;BME280;29281;50.356;30.894;2023-05-14T03:19:12;100790.50;;;18.07;45.76
43681;BME280;29281;50.356;30.894;2023-05-14T03:20:16;100784.86;;;18.10;45.30
43681;BME280;29281;50.356;30.894;2023-05-14T03:21:20;100790.37;;;18.08;45.18
43681;BME280;29281;50.356;30.894;2023-05-14T03:22:24;100788.38;;;18.01;45.16
43681;BME280;29281;50.356;30.894;2023-05-14T03:23:28;100785.84;;;18.09;46.21
43681;BME280;29281;50.356;30.894;2023-05-14T03:24:36;100785.56;;;18.02;45.54
43681;BME280;29281;50.356;30.894;2023-05-14T03:25:40;100789.52;;;18.08;45.14
43681;BME280;29281;50.356;30.894;2023-05-14T03:26:43;100786.97;;;18.06;45.16
43681;BME280;29281;50.356;30.894;2023-05-14T03:27:48;100790.23;;;18.10;44.96
43681;BME280;29281;50.356;30.894;2023-05-14T03:28:54;100790.09;;;18.11;44.71
43681;BME280;29281;50.356;30.894;2023-05-14T03:29:58;100785.84;;;18.09;44.76
43681;BME280;29281;50.356;30.894;2023-05-14T03:31:01;100788.53;;;18.09;45.54
43681;BME280;29281;50.356;30.894;2023-05-14T03:32:05;100784.99;;;18.08;45.65
43681;BME280;29281;50.356;30.894;2023-05-14T03:33:10;100777.77;;;17.99;46.09
43681;BME280;29281;50.356;30.894;2023-05-14T03:34:14;100785.97;;;17.98;44.99
43681;BME280;29281;50.356;30.894;2023-05-14T03:35:18;100779.61;;;18.08;45.63
43681;BME280;29281;50.356;30.894;2023-05-14T03:36:21;100788.27;;;18.21;44.53
43681;BME280;29281;50.356;30.894;2023-05-14T03:37:24;100787.15;;;18.34;44.36
43681;BME280;29281;50.356;30.894;2023-05-14T03:38:28;100787.45;;;18.40;44.84
43681;BME280;29281;50.356;30.894;2023-05-14T03:39:31;100787.75;;;18.47;44.40
43681;BME280;29281;50.356;30.894;2023-05-14T03:40:39;100785.93;;;18.67;43.81
43681;BME280;29281;50.356;30.894;2023-05-14T03:41:44;100785.38;;;18.73;44.46
43681;BME280;29281;50.356;30.894;2023-05-14T03:42:50;100783.53;;;18.73;44.38
43681;BME280;29281;50.356;30.894;2023-05-14T03:43:54;100792.31;;;18.75;43.25
43681;BME280;29281;50.356;30.894;2023-05-14T03:44:59;100790.34;;;18.77;44.27
43681;BME280;29281;50.356;30.894;2023-05-14T03:46:02;100790.48;;;18.76;43.40
43681;BME280;29281;50.356;30.894;2023-05-14T03:47:04;100790.48;;;18.76;43.05
43681;BME280;29281;50.356;30.894;2023-05-14T03:48:07;100786.48;;;18.80;42.97
43681;BME280;29281;50.356;30.894;2023-05-14T03:49:10;100793.56;;;18.81;43.45
43681;BME280;29281;50.356;30.894;2023-05-14T03:50:14;100786.36;;;18.72;43.65
43681;BME280;29281;50.356;30.894;2023-05-14T03:51:17;100788.06;;;18.73;44.30
43681;BME280;29281;50.356;30.894;2023-05-14T03:52:20;100795.42;;;18.71;44.57
43681;BME280;29281;50.356;30.894;2023-05-14T03:53:25;100793.54;;;18.52;45.25
43681;BME280;29281;50.356;30.894;2023-05-14T03:54:29;100795.82;;;18.47;46.27
43681;BME280;29281;50.356;30.894;2023-05-14T03:55:34;100792.59;;;18.72;46.15
43681;BME280;29281;50.356;30.894;2023-05-14T03:56:39;100798.11;;;18.90;45.64
43681;BME280;29281;50.356;30.894;2023-05-14T03:57:43;100802.45;;;19.10;44.82
43681;BME280;29281;50.356;30.894;2023-05-14T03:58:47;100794.10;;;19.13;44.57
43681;BME280;29281;50.356;30.894;2023-05-14T03:59:51;100807.42;;;19.24;45.02
43681;BME280;29281;50.356;30.894;2023-05-14T04:00:55;100794.49;;;19.28;44.65
43681;BME280;29281;50.356;30.894;2023-05-14T04:02:02;100800.41;;;19.41;44.60
43681;BME280;29281;50.356;30.894;2023-05-14T04:03:10;100796.45;;;19.55;45.00
43681;BME280;29281;50.356;30.894;2023-05-14T04:04:12;100794.70;;;19.63;44.99
43681;BME280;29281;50.356;30.894;2023-05-14T04:05:17;100798.58;;;19.51;44.95
43681;BME280;29281;50.356;30.894;2023-05-14T04:06:20;100799.73;;;19.39;45.77
43681;BME280;29281;50.356;30.894;2023-05-14T04:07:24;100803.27;;;19.49;45.72
43681;BME280;29281;50.356;30.894;2023-05-14T04:08:28;100800.59;;;19.77;45.91
43681;BME280;29281;50.356;30.894;2023-05-14T04:09:31;100796.85;;;20.42;44.56
43681;BME280;29281;50.356;30.894;2023-05-14T04:10:34;100793.80;;;21.42;42.72
43681;BME280;29281;50.356;30.894;2023-05-14T04:11:38;100798.78;;;21.89;42.01
43681;BME280;29281;50.356;30.894;2023-05-14T04:12:42;100801.33;;;21.90;42.05
43681;BME280;29281;50.356;30.894;2023-05-14T04:13:46;100798.39;;;21.75;42.07
43681;BME280;29281;50.356;30.894;2023-05-14T04:14:50;100799.36;;;21.40;42.98
43681;BME280;29281;50.356;30.894;2023-05-14T04:15:54;100805.89;;;21.30;43.67
43681;BME280;29281;50.356;30.894;2023-05-14T04:16:58;100798.64;;;21.30;43.76
43681;BME280;29281;50.356;30.894;2023-05-14T04:18:03;100805.47;;;21.68;42.77
43681;BME280;29281;50.356;30.894;2023-05-14T04:19:07;100806.09;;;22.46;41.43
43681;BME280;29281;50.356;30.894;2023-05-14T04:20:11;100808.72;;;23.21;39.72
43681;BME280;29281;50.356;30.894;2023-05-14T04:21:15;100809.84;;;23.59;39.18
43681;BME280;29281;50.356;30.894;2023-05-14T04:22:18;100815.10;;;23.61;38.71
43681;BME280;29281;50.356;30.894;2023-05-14T04:23:21;100804.48;;;24.29;37.89
43681;BME280;29281;50.356;30.894;2023-05-14T04:24:26;100810.81;;;24.52;37.31
43681;BME280;29281;50.356;30.894;2023-05-14T04:25:32;100815.33;;;24.60;36.39
43681;BME280;29281;50.356;30.894;2023-05-14T04:26:35;100815.02;;;25.76;34.90
43681;BME280;29281;50.356;30.894;2023-05-14T04:27:38;100814.22;;;26.62;33.66
43681;BME280;29281;50.356;30.894;2023-05-14T04:28:42;100821.34;;;27.83;32.39
43681;BME280;29281;50.356;30.894;2023-05-14T04:29:49;100818.34;;;28.66;30.95
43681;BME280;29281;50.356;30.894;2023-05-14T04:30:52;100819.44;;;29.64;29.79
43681;BME280;29281;50.356;30.894;2023-05-14T04:31:56;100837.08;;;30.53;28.16
43681;BME280;29281;50.356;30.894;2023-05-14T04:32:59;100835.60;;;31.20;27.34
43681;BME280;29281;50.356;30.894;2023-05-14T04:34:03;100852.69;;;31.71;26.29
43681;BME280;29281;50.356;30.894;2023-05-14T04:35:09;100846.61;;;32.06;25.95
43681;BME280;29281;50.356;30.894;2023-05-14T04:36:16;100841.59;;;32.21;25.80
43681;BME280;29281;50.356;30.894;2023-05-14T04:37:22;100853.16;;;32.71;25.36
43681;BME280;29281;50.356;30.894;2023-05-14T04:38:25;100856.41;;;32.98;25.15
43681;BME280;29281;50.356;30.894;2023-05-14T04:39:28;100860.13;;;33.15;24.90
43681;BME280;29281;50.356;30.894;2023-05-14T04:40:31;100859.98;;;33.52;24.38
43681;BME280;29281;50.356;30.894;2023-05-14T04:41:36;100862.27;;;33.43;23.93
43681;BME280;29281;50.356;30.894;2023-05-14T04:42:39;100870.17;;;33.75;23.77
43681;BME280;29281;50.356;30.894;2023-05-14T04:43:43;100875.56;;;34.05;23.28
43681;BME280;29281;50.356;30.894;2023-05-14T04:44:45;100878.73;;;34.25;22.86
43681;BME280;29281;50.356;30.894;2023-05-14T04:45:49;100875.84;;;34.43;22.46
43681;BME280;29281;50.356;30.894;2023-05-14T04:46:54;100879.74;;;34.59;22.39
43681;BME280;29281;50.356;30.894;2023-05-14T04:47:58;100879.92;;;34.69;22.04
43681;BME280;29281;50.356;30.894;2023-05-14T04:49:03;100882.19;;;34.44;22.64
43681;BME280;29281;50.356;30.894;2023-05-14T04:50:07;100878.84;;;34.42;22.85
43681;BME280;29281;50.356;30.894;2023-05-14T04:51:10;100888.85;;;34.60;22.63
43681;BME280;29281;50.356;30.894;2023-05-14T04:52:14;100885.63;;;34.91;21.94
43681;BME280;29281;50.356;30.894;2023-05-14T04:53:17;100896.45;;;35.09;21.12
43681;BME280;29281;50.356;30.894;2023-05-14T04:54:21;100897.22;;;35.21;21.49
43681;BME280;29281;50.356;30.894;2023-05-14T04:55:25;100896.00;;;35.01;21.31
43681;BME280;29281;50.356;30.894;2023-05-14T04:56:27;100891.72;;;34.65;21.82
43681;BME280;29281;50.356;30.894;2023-05-14T04:57:30;100895.16;;;34.72;21.95
43681;BME280;29281;50.356;30.894;2023-05-14T04:58:34;100894.78;;;35.08;21.82
43681;BME280;29281;50.356;30.894;2023-05-14T04:59:37;100896.08;;;35.34;21.37
43681;BME280;29281;50.356;30.894;2023-05-14T05:00:41;100901.02;;;35.49;21.03
43681;BME280;29281;50.356;30.894;2023-05-14T05:01:44;100901.36;;;35.52;20.92
43681;BME280;29281;50.356;30.894;2023-05-14T05:02:48;100900.34;;;35.75;21.02
43681;BME280;29281;50.356;30.894;2023-05-14T05:03:52;100902.00;;;35.93;21.01
43681;BME280;29281;50.356;30.894;2023-05-14T05:04:57;100905.14;;;36.18;20.77
43681;BME280;29281;50.356;30.894;2023-05-14T05:06:00;100904.52;;;35.61;21.03
43681;BME280;29281;50.356;30.894;2023-05-14T05:07:04;100902.25;;;35.91;21.18
43681;BME280;29281;50.356;30.894;2023-05-14T05:08:09;100904.13;;;36.24;20.69
43681;BME280;29281;50.356;30.894;2023-05-14T05:09:16;100902.14;;;36.42;20.79
43681;BME280;29281;50.356;30.894;2023-05-14T05:10:20;100910.48;;;36.90;19.78
43681;BME280;29281;50.356;30.894;2023-05-14T05:11:24;100916.53;;;36.87;19.20
43681;BME280;29281;50.356;30.894;2023-05-14T05:12:27;100914.59;;;36.88;19.15
43681;BME280;29281;50.356;30.894;2023-05-14T05:13:35;100911.73;;;37.05;19.25
43681;BME280;29281;50.356;30.894;2023-05-14T05:14:38;100920.02;;;37.26;18.90
43681;BME280;29281;50.356;30.894;2023-05-14T05:15:40;100916.95;;;37.28;18.96
43681;BME280;29281;50.356;30.894;2023-05-14T05:16:43;100922.67;;;37.48;18.65
43681;BME280;29281;50.356;30.894;2023-05-14T05:17:54;100919.85;;;37.43;18.58
43681;BME280;29281;50.356;30.894;2023-05-14T05:18:58;100916.82;;;37.45;18.62
43681;BME280;29281;50.356;30.894;2023-05-14T05:20:01;100914.72;;;37.57;18.42
43681;BME280;29281;50.356;30.894;2023-05-14T05:21:07;100911.66;;;37.58;18.52
43681;BME280;29281;50.356;30.894;2023-05-14T05:22:10;100914.23;;;38.02;18.35
43681;BME280;29281;50.356;30.894;2023-05-14T05:23:13;100919.33;;;38.20;18.19
43681;BME280;29281;50.356;30.894;2023-05-14T05:24:16;100921.87;;;38.27;17.95
43681;BME280;29281;50.356;30.894;2023-05-14T05:25:20;100927.22;;;38.44;17.79
43681;BME280;29281;50.356;30.894;2023-05-14T05:26:25;100924.31;;;38.76;17.87
43681;BME280;29281;50.356;30.894;2023-05-14T05:27:29;100927.41;;;38.27;18.04
43681;BME280;29281;50.356;30.894;2023-05-14T05:28:33;100926.75;;;37.68;18.29
43681;BME280;29281;50.356;30.894;2023-05-14T05:29:36;100928.53;;;37.52;18.35
43681;BME280;29281;50.356;30.894;2023-05-14T05:30:39;100919.06;;;37.80;18.39
43681;BME280;29281;50.356;30.894;2023-05-14T05:31:45;100928.86;;;37.60;16.71
43681;BME280;29281;50.356;30.894;2023-05-14T05:32:49;100928.02;;;37.60;17.37
43681;BME280;29281;50.356;30.894;2023-05-14T05:33:52;100927.56;;;37.36;16.59
43681;BME280;29281;50.356;30.894;2023-05-14T05:34:54;100928.28;;;36.99;17.00
43681;BME280;29281;50.356;30.894;2023-05-14T05:35:57;100929.14;;;35.96;17.34
43681;BME280;29281;50.356;30.894;2023-05-14T05:37:00;100928.52;;;36.11;17.61
43681;BME280;29281;50.356;30.894;2023-05-14T05:38:02;100928.34;;;36.78;16.56